Time;durP1;ratioP1;P1;durP2;ratioP2;P2;SDS_P1;SDS_P2;PMS_P1;PMS_P2;Temp;Humidity;BMP_temperature;BMP_pressure;BME280_temperature;BME280_humidity;BME280_pressure;Samples;Min_cycle;Max_cycle;Signal;HPM_P1;HPM_P2
2022/03/15 00:02:16;;;;;;;21.23;14.38;;;;;;;6.31;80.08;100948.84;4933725;29;20027;-79
2022/03/15 00:04:41;;;;;;;18.75;12.77;;;;;;;6.33;80.49;100947.97;4933847;29;20035;-79
2022/03/15 00:07:10;;;;;;;18.25;11.95;;;;;;;6.30;81.15;100936.78;4933514;29;20032;-79
2022/03/15 00:09:36;;;;;;;18.50;11.75;;;;;;;6.38;82.81;100953.09;4933940;29;20027;-79
2022/03/15 00:12:02;;;;;;;18.45;12.38;;;;;;;6.43;83.10;100962.53;4934775;29;20075;-79
2022/03/15 00:14:27;;;;;;;17.80;12.70;;;;;;;6.39;84.86;100941.88;4933742;29;20070;-79
2022/03/15 00:16:54;;;;;;;19.70;12.30;;;;;;;6.48;85.83;100955.56;4935060;29;20032;-79
2022/03/15 00:19:19;;;;;;;20.60;12.57;;;;;;;6.56;86.70;100965.00;4933460;29;20495;-79
2022/03/15 00:21:44;;;;;;;16.77;12.95;;;;;;;6.56;86.62;100958.09;4933523;29;20115;-79
2022/03/15 00:24:10;;;;;;;16.73;11.98;;;;;;;6.61;87.00;100960.63;4934777;29;20028;-79
2022/03/15 00:26:35;;;;;;;17.85;12.55;;;;;;;6.55;88.04;100940.84;4934911;29;20082;-79
2022/03/15 00:29:01;;;;;;;16.60;12.32;;;;;;;6.62;88.69;100955.47;4933364;29;20118;-79
2022/03/15 00:31:27;;;;;;;17.38;12.15;;;;;;;6.69;88.96;100969.19;4932694;29;20460;-79
2022/03/15 00:33:52;;;;;;;18.70;12.18;;;;;;;6.67;89.06;100968.38;4933466;29;20598;-79
2022/03/15 00:36:18;;;;;;;15.38;12.13;;;;;;;6.62;88.83;100965.81;4933061;29;20034;-79
2022/03/15 00:38:44;;;;;;;18.25;12.70;;;;;;;6.65;89.59;100972.69;4933505;29;20031;-79
2022/03/15 00:41:09;;;;;;;18.77;13.57;;;;;;;6.68;89.28;100980.44;4934524;29;20392;-79
2022/03/15 00:43:35;;;;;;;18.73;12.98;;;;;;;6.68;89.64;100983.03;4934976;29;20028;-79
2022/03/15 00:46:02;;;;;;;18.35;12.95;;;;;;;6.68;89.61;100977.84;4934679;29;20023;-79
2022/03/15 00:48:27;;;;;;;17.20;12.88;;;;;;;6.71;90.58;100986.44;4933268;29;20024;-79
2022/03/15 00:50:53;;;;;;;18.83;13.05;;;;;;;6.61;90.12;100971.00;4935036;29;20167;-79
2022/03/15 00:53:18;;;;;;;16.38;12.82;;;;;;;6.68;90.03;100973.53;4934413;29;20028;-79
2022/03/15 00:55:44;;;;;;;18.88;12.27;;;;;;;6.70;89.89;100981.25;4934443;29;20036;-79
2022/03/15 00:58:10;;;;;;;18.05;13.60;;;;;;;6.66;90.94;100972.69;4934492;29;20034;-79
2022/03/15 01:00:36;;;;;;;17.35;13.43;;;;;;;6.72;90.58;100979.53;4933309;29;20024;-79
2022/03/15 01:03:03;;;;;;;17.23;13.07;;;;;;;6.79;90.27;100990.69;4934425;29;20028;-79
2022/03/15 01:05:29;;;;;;;17.10;13.25;;;;;;;6.78;90.16;100983.78;4934366;29;20046;-79
2022/03/15 01:07:54;;;;;;;23.35;13.63;;;;;;;6.81;90.94;100982.03;4934608;29;20110;-79
2022/03/15 01:10:20;;;;;;;19.63;13.48;;;;;;;6.81;91.30;100979.44;4932986;29;20428;-79
2022/03/15 01:12:46;;;;;;;20.23;14.02;;;;;;;6.82;91.45;100969.94;4934283;29;20075;-79
2022/03/15 01:15:11;;;;;;;19.52;13.23;;;;;;;6.82;91.42;100967.34;4934101;29;20081;-79
2022/03/15 01:17:37;;;;;;;19.75;13.25;;;;;;;6.80;92.00;100958.75;4933083;29;20032;-79
2022/03/15 01:20:05;;;;;;;17.27;12.82;;;;;;;6.83;93.45;100964.75;4932995;29;20096;-79
2022/03/15 01:22:30;;;;;;;15.90;12.48;;;;;;;6.82;94.43;100959.56;4933183;29;20031;-79
2022/03/15 01:24:56;;;;;;;15.70;11.82;;;;;;;6.72;95.15;100945.88;4934428;29;20543;-79
2022/03/15 01:27:21;;;;;;;15.77;11.93;;;;;;;6.76;95.17;100950.16;4934147;29;20032;-79
2022/03/15 01:29:47;;;;;;;14.45;11.50;;;;;;;6.87;95.18;100962.97;4934536;29;20031;-79
2022/03/15 01:32:12;;;;;;;14.27;10.88;;;;;;;6.78;94.63;100944.94;4932649;29;20127;-79
2022/03/15 01:34:38;;;;;;;15.65;11.07;;;;;;;6.91;94.99;100967.25;4934297;29;20043;-79
2022/03/15 01:37:04;;;;;;;14.45;11.40;;;;;;;6.88;95.39;100959.53;4934323;29;20028;-79
2022/03/15 01:39:29;;;;;;;14.55;11.20;;;;;;;6.91;95.02;100964.66;4932791;29;20039;-79
2022/03/15 01:41:54;;;;;;;16.42;11.02;;;;;;;6.91;94.84;100962.94;4934238;29;20039;-79
2022/03/15 01:44:22;;;;;;;15.40;11.02;;;;;;;6.86;95.76;100953.50;4935665;29;20361;-79
2022/03/15 01:46:50;;;;;;;13.93;9.90;;;;;;;6.93;95.36;100971.53;4936165;29;20086;-79
2022/03/15 01:49:16;;;;;;;14.70;10.70;;;;;;;6.93;95.09;100970.69;4937427;29;20032;-79
2022/03/15 01:51:43;;;;;;;15.38;10.50;;;;;;;6.96;95.21;100970.66;4936308;29;20518;-79
2022/03/15 01:54:10;;;;;;;15.57;10.73;;;;;;;6.98;95.71;100967.16;4936162;29;20391;-79
2022/03/15 01:56:40;;;;;;;12.32;10.10;;;;;;;6.93;95.43;100956.00;4937236;29;20143;-79
2022/03/15 01:59:06;;;;;;;13.68;9.88;;;;;;;6.98;95.46;100966.31;4936074;29;20400;-79
2022/03/15 02:01:32;;;;;;;17.42;10.02;;;;;;;7.00;95.22;100960.25;4935844;29;20046;-79
2022/03/15 02:03:57;;;;;;;14.07;9.57;;;;;;;7.00;95.33;100962.84;4936102;29;20111;-79
2022/03/15 02:06:22;;;;;;;13.38;10.65;;;;;;;6.99;95.25;100957.66;4935861;29;20042;-79
2022/03/15 02:08:48;;;;;;;12.98;9.82;;;;;;;7.04;95.25;100962.78;4937179;29;20034;-79
2022/03/15 02:11:15;;;;;;;13.45;9.90;;;;;;;7.03;95.58;100959.34;4937092;29;20519;-79
2022/03/15 02:13:41;;;;;;;12.80;9.95;;;;;;;7.05;95.88;100967.97;4935644;29;20040;-79
2022/03/15 02:16:06;;;;;;;16.30;9.73;;;;;;;7.03;95.66;100963.66;4935575;29;20465;-79
2022/03/15 02:18:32;;;;;;;14.77;9.95;;;;;;;6.99;95.32;100955.94;4937216;29;20464;-79
2022/03/15 02:20:57;;;;;;;13.77;10.02;;;;;;;7.03;95.85;100961.94;4935783;29;20023;-79
2022/03/15 02:23:22;;;;;;;17.10;10.88;;;;;;;7.07;95.85;100962.75;4935441;29;20119;-79
2022/03/15 02:25:48;;;;;;;16.58;11.60;;;;;;;6.97;95.68;100952.50;4935668;29;20514;-80
2022/03/15 02:28:13;;;;;;;19.33;14.02;;;;;;;7.06;95.20;100963.63;4935288;28;20024;-80
2022/03/15 02:30:39;;;;;;;20.90;14.18;;;;;;;7.04;95.42;100960.19;4936651;29;20114;-79
2022/03/15 02:33:04;;;;;;;20.77;14.75;;;;;;;7.02;94.91;100956.78;4936888;29;20035;-79
2022/03/15 02:35:30;;;;;;;22.52;15.27;;;;;;;6.98;94.06;100950.78;4935305;29;20030;-79
2022/03/15 02:37:55;;;;;;;25.27;17.40;;;;;;;6.97;93.96;100959.41;4935411;29;20032;-79
2022/03/15 02:40:21;;;;;;;27.83;18.45;;;;;;;6.91;93.28;100936.16;4935147;29;20028;-79
2022/03/15 02:42:46;;;;;;;26.52;17.90;;;;;;;6.86;92.75;100937.94;4936518;29;20027;-79
2022/03/15 02:45:13;;;;;;;25.60;18.63;;;;;;;6.84;92.30;100935.38;4936449;29;20380;-80
2022/03/15 02:47:48;;;;;;;30.77;19.83;;;;;;;6.81;92.11;100943.19;4935316;29;20460;-79
2022/03/15 02:50:14;;;;;;;28.20;18.17;;;;;;;6.75;91.60;100940.66;4935038;29;20519;-80
2022/03/15 02:52:39;;;;;;;24.02;17.73;;;;;;;6.74;91.73;100947.59;4936282;29;20072;-79
2022/03/15 02:55:06;;;;;;;29.40;20.63;;;;;;;6.67;91.66;100951.09;4933994;29;20028;-79
2022/03/15 02:57:31;;;;;;;28.77;20.40;;;;;;;6.60;92.07;100940.81;4935964;29;20039;-79
2022/03/15 02:59:57;;;;;;;28.63;19.88;;;;;;;6.67;91.81;100958.88;4936118;29;20024;-80
2022/03/15 03:02:22;;;;;;;28.08;19.85;;;;;;;6.63;91.43;100964.09;4936083;29;20037;-80
2022/03/15 03:04:47;;;;;;;24.52;17.98;;;;;;;6.66;91.64;100964.06;4936279;29;20063;-79
2022/03/15 03:07:15;;;;;;;23.30;16.65;;;;;;;6.61;91.09;100961.50;4934699;29;20389;-79
2022/03/15 03:09:40;;;;;;;26.05;17.52;;;;;;;6.60;91.55;100967.56;4934778;29;20026;-79
2022/03/15 03:12:06;;;;;;;22.33;15.43;;;;;;;6.52;91.38;100948.63;4934594;29;20055;-77
2022/03/15 03:14:34;;;;;;;23.15;16.13;;;;;;;6.62;91.25;100970.16;4934359;29;20054;-80
2022/03/15 03:16:59;;;;;;;23.02;16.25;;;;;;;6.64;91.34;100973.56;4934833;29;20036;-80
2022/03/15 03:19:25;;;;;;;19.73;14.98;;;;;;;6.61;90.96;100969.25;4935887;29;20032;-79
2022/03/15 03:21:50;;;;;;;22.15;15.20;;;;;;;6.50;91.33;100953.84;4934718;29;20036;-80
2022/03/15 03:24:19;;;;;;;21.67;14.95;;;;;;;6.58;91.77;100961.53;4934387;29;20023;-80
2022/03/15 03:26:44;;;;;;;25.40;15.88;;;;;;;6.64;91.66;100968.38;4934370;29;20126;-79
2022/03/15 03:29:10;;;;;;;23.38;15.98;;;;;;;6.61;91.44;100968.41;4934260;29;20131;-79
2022/03/15 03:31:42;;;;;;;18.67;14.13;;;;;;;6.59;91.07;100967.56;4934288;29;20396;-79
2022/03/15 03:34:09;;;;;;;20.50;15.80;;;;;;;6.44;90.80;100959.06;4935708;29;20103;-80
2022/03/15 03:36:36;;;;;;;22.33;14.93;;;;;;;6.57;90.09;100985.69;4935322;29;20039;-80
2022/03/15 03:39:05;;;;;;;19.95;15.05;;;;;;;6.54;89.79;100971.94;4934186;29;20040;-80
2022/03/15 03:41:30;;;;;;;24.75;16.45;;;;;;;6.43;89.23;100970.28;4935163;29;20112;-80
2022/03/15 03:43:56;;;;;;;18.85;14.25;;;;;;;6.49;89.23;100983.19;4934325;29;20120;-80
2022/03/15 03:46:22;;;;;;;23.70;16.48;;;;;;;6.48;88.88;100984.03;4935086;29;20479;-79
2022/03/15 03:48:50;;;;;;;21.50;15.60;;;;;;;6.40;88.62;100967.72;4935436;29;20075;-79
2022/03/15 03:51:15;;;;;;;22.30;15.27;;;;;;;6.45;88.15;100986.69;4933858;29;20097;-79
2022/03/15 03:53:40;;;;;;;23.85;16.40;;;;;;;6.36;88.09;100971.22;4933994;29;20472;-79
2022/03/15 03:56:06;;;;;;;23.85;15.90;;;;;;;6.46;87.89;100982.34;4933711;29;20039;-80
2022/03/15 03:58:31;;;;;;;21.55;15.75;;;;;;;6.39;87.79;100973.78;4935166;29;20492;-80
2022/03/15 04:00:57;;;;;;;25.50;15.93;;;;;;;6.38;87.73;100978.97;4934042;29;20361;-80
2022/03/15 04:03:24;;;;;;;24.75;17.02;;;;;;;6.45;87.72;100994.44;4934950;29;20487;-80
2022/03/15 04:05:51;;;;;;;24.85;16.55;;;;;;;6.44;87.25;100991.84;4933653;29;20436;-80
2022/03/15 04:08:17;;;;;;;25.83;16.17;;;;;;;6.43;87.43;100982.38;4933552;29;20032;-80
2022/03/15 04:10:45;;;;;;;22.80;17.13;;;;;;;6.40;87.37;100982.38;4933911;29;20365;-80
2022/03/15 04:13:11;;;;;;;23.13;16.30;;;;;;;6.42;87.47;100991.00;4935130;29;20048;-80
2022/03/15 04:15:37;;;;;;;21.73;15.40;;;;;;;6.37;87.14;100985.88;4934799;29;20083;-80
2022/03/15 04:18:03;;;;;;;20.67;14.90;;;;;;;6.38;86.98;100981.56;4935127;29;20066;-80
2022/03/15 04:20:28;;;;;;;25.02;16.50;;;;;;;6.35;86.88;100979.84;4934680;29;20028;-80
2022/03/15 04:22:54;;;;;;;23.70;15.73;;;;;;;6.24;87.00;100960.97;4933531;29;20030;-80
2022/03/15 04:25:19;;;;;;;23.40;15.52;;;;;;;6.31;87.00;100972.97;4934767;29;20123;-80
2022/03/15 04:27:45;;;;;;;21.63;15.88;;;;;;;6.19;87.18;100967.88;4933693;29;20478;-80
2022/03/15 04:30:11;;;;;;;22.90;15.55;;;;;;;6.33;86.97;100989.38;4934754;29;20055;-81
2022/03/15 04:32:36;;;;;;;26.23;17.35;;;;;;;6.29;87.05;100979.91;4934686;29;20047;-80
2022/03/15 04:35:02;;;;;;;27.30;17.50;;;;;;;6.20;87.06;100970.50;4933539;29;20031;-80
2022/03/15 04:37:28;;;;;;;25.90;16.33;;;;;;;6.23;87.27;100980.78;4933326;29;20122;-80
2022/03/15 04:39:53;;;;;;;25.25;16.00;;;;;;;6.20;87.17;100978.25;4934620;29;20155;-79
2022/03/15 04:42:19;;;;;;;25.00;17.20;;;;;;;6.19;87.21;100973.06;4934605;29;20035;-79
2022/03/15 04:44:44;;;;;;;24.98;16.52;;;;;;;6.25;87.47;100989.41;4933500;29;20028;-79
2022/03/15 04:47:10;;;;;;;23.15;16.90;;;;;;;6.23;87.47;100987.69;4933417;29;20472;-79
2022/03/15 04:49:35;;;;;;;27.63;16.75;;;;;;;6.23;87.54;100991.13;4934439;29;20027;-79
2022/03/15 04:52:02;;;;;;;22.67;15.80;;;;;;;6.24;87.08;100990.28;4934701;29;20031;-79
2022/03/15 04:54:29;;;;;;;22.63;15.45;;;;;;;6.17;87.00;100977.41;4932826;29;20357;-79
2022/03/15 04:56:54;;;;;;;20.05;15.40;;;;;;;6.13;87.40;100992.09;4933039;29;20040;-79
2022/03/15 04:59:20;;;;;;;21.20;15.13;;;;;;;6.13;87.64;101005.03;4933115;29;20040;-79
2022/03/15 05:01:45;;;;;;;24.17;15.82;;;;;;;6.12;87.74;100994.69;4933494;29;20086;-84
2022/03/15 05:04:11;;;;;;;21.30;14.80;;;;;;;6.06;87.65;100982.63;4935079;29;20027;-79
2022/03/15 05:06:38;;;;;;;19.80;13.95;;;;;;;6.00;87.89;100987.88;4934280;29;20369;-80
2022/03/15 05:09:04;;;;;;;22.92;15.43;;;;;;;5.98;88.35;100987.88;4933003;29;20032;-81
2022/03/15 05:11:31;;;;;;;36.58;22.23;;;;;;;6.03;88.29;100994.75;4933029;29;20372;-81
2022/03/15 05:13:56;;;;;;;50.88;29.88;;;;;;;5.96;88.34;100984.44;4934157;29;20095;-81
2022/03/15 05:16:22;;;;;;;48.72;28.17;;;;;;;5.94;88.92;101004.28;4932911;29;20024;-81
2022/03/15 05:18:52;;;;;;;50.55;28.27;;;;;;;5.89;88.92;101007.72;4936684;29;20029;-79
2022/03/15 05:21:18;;;;;;;45.15;27.05;;;;;;;5.83;89.22;101003.44;4936711;29;20029;-80
2022/03/15 05:23:44;;;;;;;34.97;21.83;;;;;;;5.79;89.55;101001.75;4936362;29;20091;-80
2022/03/15 05:26:16;;;;;;;33.28;20.52;;;;;;;5.71;89.88;101009.53;4937290;29;20055;-94
2022/03/15 05:28:43;;;;;;;28.52;19.63;;;;;;;5.64;90.23;101000.09;4936778;29;20036;-87
2022/03/15 05:31:09;;;;;;;31.88;18.33;;;;;;;5.56;90.50;101001.84;4936848;29;20083;-84
2022/03/15 05:33:34;;;;;;;28.33;17.80;;;;;;;5.40;90.91;100995.91;4936870;29;20038;-88
2022/03/15 05:36:00;;;;;;;28.20;17.83;;;;;;;5.44;91.15;101002.78;4938211;29;20028;-90
2022/03/15 05:38:26;;;;;;;30.38;18.30;;;;;;;5.48;91.43;101006.22;4938210;29;20027;-94
2022/03/15 05:40:52;;;;;;;33.08;24.25;;;;;;;5.54;91.09;101000.16;4938389;29;20034;-90
2022/03/15 05:43:22;;;;;;;33.78;20.35;;;;;;;5.47;91.12;100976.06;4937619;29;20023;-82
2022/03/15 05:45:50;;;;;;;29.90;17.92;;;;;;;5.75;90.94;100994.88;4936834;29;20023;-91
2022/03/15 05:48:25;;;;;;;26.55;17.75;;;;;;;5.93;90.26;100996.53;4937952;29;20028;-92
2022/03/15 05:50:51;;;;;;;26.00;17.58;;;;;;;6.08;89.61;100990.41;4938936;29;20024;-91
2022/03/15 05:53:17;;;;;;;25.10;18.25;;;;;;;6.21;88.53;100987.72;4936986;29;20044;-83
2022/03/15 05:55:42;;;;;;;26.98;18.20;;;;;;;6.45;87.74;100991.84;4934732;29;20107;-82
2022/03/15 05:58:08;;;;;;;28.80;18.58;;;;;;;6.68;86.72;100991.63;4935039;29;20455;-83
2022/03/15 06:00:33;;;;;;;37.30;21.48;;;;;;;7.03;85.24;100994.75;4934827;29;20111;-87
2022/03/15 06:02:59;;;;;;;31.08;20.85;;;;;;;7.16;83.89;100996.34;4934866;29;20519;-84
2022/03/15 06:05:25;;;;;;;39.55;28.02;;;;;;;7.16;83.04;100992.03;4918598;29;20065;-84
2022/03/15 06:07:52;;;;;;;43.45;28.00;;;;;;;7.21;82.74;100989.38;4918839;29;20122;-84
2022/03/15 06:10:21;;;;;;;38.08;26.15;;;;;;;7.48;81.96;100980.41;4934794;29;20544;-83
2022/03/15 06:12:47;;;;;;;30.73;22.27;;;;;;;7.75;80.73;100972.28;4917820;29;20378;-83
2022/03/15 06:15:13;;;;;;;29.70;20.70;;;;;;;8.24;78.82;100983.66;4917599;29;20027;-85
2022/03/15 06:17:57;;;;;;;29.92;18.92;;;;;;;8.60;76.76;100976.19;4933308;29;20035;-83
2022/03/15 06:20:25;;;;;;;27.38;16.70;;;;;;;8.78;75.48;100982.81;4933182;29;20036;-80
2022/03/15 06:22:51;;;;;;;30.00;16.98;;;;;;;8.91;74.57;100979.09;4933580;29;20376;-86
2022/03/15 06:25:16;;;;;;;26.80;17.05;;;;;;;9.10;73.79;100970.06;4932968;29;20401;-86
2022/03/15 06:27:43;;;;;;;23.52;17.02;;;;;;;9.52;72.56;100974.41;4935662;29;20031;-84
2022/03/15 06:30:09;;;;;;;25.38;16.27;;;;;;;9.83;70.81;100961.59;4934394;29;20122;-85
2022/03/15 06:32:35;;;;;;;24.00;15.48;;;;;;;10.40;69.03;100971.56;4934486;29;20055;-89
2022/03/15 06:35:05;;;;;;;23.55;16.25;;;;;;;10.98;66.38;100963.09;4935087;29;20060;-89
2022/03/15 06:37:31;;;;;;;39.97;23.88;;;;;;;11.22;64.86;100961.56;4934663;29;20098;-87
2022/03/15 06:39:56;;;;;;;58.90;33.08;;;;;;;11.55;63.64;100966.69;4935297;29;20421;-80
2022/03/15 06:42:22;;;;;;;34.70;22.33;;;;;;;11.85;62.65;100953.66;4934365;29;20123;-80
2022/03/15 06:44:48;;;;;;;22.02;14.82;;;;;;;12.58;60.77;100956.47;4933935;29;20170;-80
2022/03/15 06:47:13;;;;;;;20.02;13.65;;;;;;;12.93;58.66;100955.25;4934058;29;20118;-82
2022/03/15 06:49:39;;;;;;;17.30;13.45;;;;;;;13.09;57.99;100949.47;4935071;29;20106;-82
2022/03/15 06:52:05;;;;;;;21.67;13.98;;;;;;;13.45;57.18;100935.06;4934234;29;20036;-82
2022/03/15 06:54:31;;;;;;;19.83;13.77;;;;;;;14.36;54.33;100961.13;4934995;29;20043;-82
2022/03/15 06:56:57;;;;;;;17.67;12.07;;;;;;;14.38;52.81;100961.06;4935257;29;20376;-82
2022/03/15 06:59:23;;;;;;;16.55;12.10;;;;;;;14.36;53.47;100961.13;4933902;29;20036;-82
2022/03/15 07:01:49;;;;;;;24.23;13.65;;;;;;;15.05;51.72;100967.88;4933892;29;20047;-82
2022/03/15 07:04:14;;;;;;;16.33;13.25;;;;;;;15.51;49.89;100963.19;4934087;29;20031;-82
2022/03/15 07:06:40;;;;;;;22.38;14.38;;;;;;;15.27;49.44;100973.00;4933642;29;20028;-82
2022/03/15 07:09:05;;;;;;;24.70;14.38;;;;;;;15.26;49.56;100971.31;4933873;29;20032;-82
2022/03/15 07:11:31;;;;;;;19.48;13.90;;;;;;;15.52;48.50;100970.97;4934844;29;20357;-82
2022/03/15 07:13:56;;;;;;;23.95;14.90;;;;;;;15.32;48.39;100936.91;4893505;29;1195796;-84
2022/03/15 07:16:22;;;;;;;27.35;15.80;;;;;;;15.47;48.43;100959.84;4935844;29;20126;-83
2022/03/15 07:18:47;;;;;;;22.00;15.13;;;;;;;15.59;47.96;100977.66;4935280;29;20115;-83
2022/03/15 07:21:13;;;;;;;23.25;15.07;;;;;;;15.62;48.31;100972.22;4934527;29;20087;-83
2022/03/15 07:23:38;;;;;;;19.50;14.10;;;;;;;15.64;47.97;100952.06;4935474;29;20472;-82
2022/03/15 07:26:04;;;;;;;22.17;13.52;;;;;;;16.54;46.44;100967.81;4934307;29;20032;-82
2022/03/15 07:28:30;;;;;;;19.40;13.77;;;;;;;17.70;43.85;100969.63;4933944;29;20079;-82
2022/03/15 07:30:56;;;;;;;20.58;12.93;;;;;;;18.28;42.42;100970.75;4935323;29;20023;-82
2022/03/15 07:33:21;;;;;;;17.98;12.18;;;;;;;18.44;41.42;100973.38;4934097;29;20138;-82
2022/03/15 07:35:46;;;;;;;21.45;13.07;;;;;;;18.72;40.85;100972.63;4933785;29;20032;-82
2022/03/15 07:38:17;;;;;;;19.40;13.10;;;;;;;19.01;40.32;100973.53;4934085;29;20051;-82
2022/03/15 07:40:43;;;;;;;18.05;12.35;;;;;;;19.29;39.54;100977.09;4933429;29;20031;-82
2022/03/15 07:43:08;;;;;;;16.05;11.77;;;;;;;19.34;38.25;100975.88;4935392;29;20035;-80
2022/03/15 07:45:34;;;;;;;14.20;11.48;;;;;;;19.09;38.65;100978.34;4935366;29;20123;-80
2022/03/15 07:47:59;;;;;;;16.23;11.43;;;;;;;18.58;39.72;100983.09;4934039;29;20118;-81
2022/03/15 07:50:25;;;;;;;16.70;12.45;;;;;;;17.92;40.83;100976.34;4951945;29;20050;-80
2022/03/15 07:52:52;;;;;;;18.02;13.60;;;;;;;17.40;41.95;100971.25;4951796;28;20046;-81
2022/03/15 07:55:18;;;;;;;20.77;14.00;;;;;;;16.92;42.95;100976.41;4935678;29;20142;-81
2022/03/15 07:57:43;;;;;;;19.05;11.68;;;;;;;16.70;43.84;100974.00;4951655;29;20033;-82
2022/03/15 08:00:10;;;;;;;17.38;12.18;;;;;;;16.40;44.47;100957.16;4951855;29;20113;-82
2022/03/15 08:02:35;;;;;;;16.08;12.15;;;;;;;16.26;45.37;100968.34;4951629;29;20042;-82
2022/03/15 08:05:00;;;;;;;15.93;11.23;;;;;;;16.04;46.00;100965.91;4935778;29;20422;-82
2022/03/15 08:07:26;;;;;;;17.80;11.77;;;;;;;15.83;46.65;100965.16;4951778;28;20036;-83
2022/03/15 08:09:51;;;;;;;15.25;10.63;;;;;;;15.73;47.29;100960.44;4951614;28;20047;-83
2022/03/15 08:12:18;;;;;;;15.82;10.75;;;;;;;15.77;47.25;100962.84;4951671;29;20063;-83
2022/03/15 08:14:44;;;;;;;16.25;11.07;;;;;;;15.73;47.85;100965.69;4951554;29;20087;-83
2022/03/15 08:17:10;;;;;;;15.90;11.18;;;;;;;15.66;47.96;100963.31;4935623;29;20073;-82
2022/03/15 08:19:35;;;;;;;14.07;11.15;;;;;;;15.58;48.40;100965.41;4951471;29;20106;-79
2022/03/15 08:22:02;;;;;;;14.02;10.55;;;;;;;15.51;48.77;100953.53;4938948;29;20040;-77
2022/03/15 08:24:28;;;;;;;17.48;11.45;;;;;;;15.40;49.05;100950.53;4933590;29;20440;-80
2022/03/15 08:26:53;;;;;;;16.63;11.95;;;;;;;15.38;49.61;100955.84;4934796;29;20123;-80
2022/03/15 08:29:18;;;;;;;15.52;12.00;;;;;;;15.38;49.89;100960.22;4933453;29;20039;-79
2022/03/15 08:31:44;;;;;;;15.32;11.38;;;;;;;15.30;50.06;100960.59;4933382;29;20174;-80
2022/03/15 08:34:09;;;;;;;18.15;11.38;;;;;;;15.19;50.45;100952.34;4934677;29;20483;-80
2022/03/15 08:36:36;;;;;;;15.60;12.18;;;;;;;15.08;50.62;100946.72;4934448;29;20031;-80
2022/03/15 08:39:02;;;;;;;20.27;12.73;;;;;;;15.06;51.12;100948.56;4933451;29;20054;-80
2022/03/15 08:41:28;;;;;;;17.23;11.90;;;;;;;14.91;51.74;100940.44;4933303;29;20476;-79
2022/03/15 08:43:53;;;;;;;16.35;12.40;;;;;;;14.90;52.16;100944.00;4933443;29;20023;-80
2022/03/15 08:46:18;;;;;;;15.88;12.13;;;;;;;14.78;52.41;100933.19;4933526;29;20519;-80
2022/03/15 08:48:44;;;;;;;20.80;12.38;;;;;;;14.77;52.68;100928.88;4934449;29;20031;-80
2022/03/15 08:51:09;;;;;;;18.65;12.05;;;;;;;14.75;52.99;100933.31;4933356;29;20114;-79
2022/03/15 08:53:35;;;;;;;19.88;13.40;;;;;;;14.77;52.74;100934.13;4935417;29;20032;-80
2022/03/15 08:56:01;;;;;;;18.55;12.70;;;;;;;14.77;52.90;100936.72;4938290;29;20463;-80
2022/03/15 08:58:26;;;;;;;20.00;13.40;;;;;;;14.78;52.96;100930.56;4937429;29;20059;-80
2022/03/15 09:00:52;;;;;;;20.02;13.13;;;;;;;14.77;53.49;100931.50;4954727;29;20523;-79
2022/03/15 09:03:18;;;;;;;21.70;14.40;;;;;;;14.71;53.49;100932.63;4938961;29;20063;-80
2022/03/15 09:05:44;;;;;;;23.65;13.70;;;;;;;14.60;53.56;100919.97;4938736;29;20042;-80
2022/03/15 09:08:09;;;;;;;20.17;13.50;;;;;;;14.69;53.92;100931.81;4938958;29;20043;-79
2022/03/15 09:10:35;;;;;;;24.33;15.63;;;;;;;14.65;53.94;100930.25;4938648;29;20046;-80
2022/03/15 09:13:03;;;;;;;18.58;14.45;;;;;;;14.60;54.14;100924.34;4954912;29;20100;-80
2022/03/15 09:15:29;;;;;;;20.38;14.57;;;;;;;14.48;54.70;100891.59;4938668;29;20114;-80
2022/03/15 09:17:55;;;;;;;19.65;14.50;;;;;;;14.51;54.95;100904.63;4938457;29;20043;-79
2022/03/15 09:20:20;;;;;;;19.58;14.75;;;;;;;14.57;55.08;100920.06;4938731;29;20043;-79
2022/03/15 09:22:46;;;;;;;21.55;14.50;;;;;;;14.45;55.14;100913.59;4954618;29;20122;-79
2022/03/15 09:25:11;;;;;;;19.23;14.63;;;;;;;14.42;55.11;100907.63;4938742;29;20031;-79
2022/03/15 09:27:37;;;;;;;21.35;15.70;;;;;;;14.50;55.23;100917.81;4938514;29;20090;-78
2022/03/15 09:30:04;;;;;;;21.48;15.43;;;;;;;14.50;55.77;100918.66;4954699;29;20031;-79
2022/03/15 09:32:29;;;;;;;19.77;16.02;;;;;;;14.25;55.36;100886.50;4941645;28;20102;-78
2022/03/15 09:34:56;;;;;;;17.85;14.55;;;;;;;14.38;55.99;100919.13;4937538;29;20427;-78
2022/03/15 09:37:21;;;;;;;22.45;15.35;;;;;;;14.27;56.13;100903.84;4937866;29;20031;-83
2022/03/15 09:39:47;;;;;;;20.63;15.55;;;;;;;14.18;56.27;100897.22;4936198;29;20060;-79
2022/03/15 09:42:17;;;;;;;18.98;14.07;;;;;;;14.25;56.16;100910.94;4937859;29;20036;-79
2022/03/15 09:44:42;;;;;;;24.25;14.90;;;;;;;14.24;56.50;100906.59;4937502;29;20027;-79
2022/03/15 09:47:09;;;;;;;20.65;14.90;;;;;;;14.28;55.65;100894.22;4937725;29;20102;-79
2022/03/15 09:49:36;;;;;;;21.05;14.85;;;;;;;14.34;55.73;100896.59;4937530;29;20091;-79
2022/03/15 09:52:06;;;;;;;24.38;16.17;;;;;;;14.33;55.27;100892.28;4936201;29;20035;-79
2022/03/15 09:54:32;;;;;;;21.67;15.80;;;;;;;14.31;55.09;100889.72;4937352;29;20039;-78
2022/03/15 09:56:58;;;;;;;19.17;14.07;;;;;;;14.24;55.38;100877.78;4935974;29;20023;-80
2022/03/15 09:59:26;;;;;;;22.02;15.43;;;;;;;14.31;55.48;100879.22;4937769;29;20035;-80
2022/03/15 10:01:53;;;;;;;19.05;15.48;;;;;;;14.33;55.42;100876.56;4937166;29;20028;-81
2022/03/15 10:04:20;;;;;;;18.95;14.07;;;;;;;14.36;55.09;100885.13;4935594;29;20040;-81
2022/03/15 10:06:46;;;;;;;22.15;15.73;;;;;;;14.35;54.95;100891.28;4937238;29;20361;-81
2022/03/15 10:09:13;;;;;;;19.77;14.32;;;;;;;14.27;55.26;100872.41;4935657;29;20157;-81
2022/03/15 10:11:38;;;;;;;21.73;14.80;;;;;;;14.32;55.00;100870.44;4935631;29;20366;-81
2022/03/15 10:14:04;;;;;;;18.98;13.95;;;;;;;14.40;54.71;100881.44;4935715;29;20031;-81
2022/03/15 10:16:32;;;;;;;18.98;14.82;;;;;;;14.36;54.03;100869.38;4935712;29;20035;-81
2022/03/15 10:18:58;;;;;;;19.50;14.55;;;;;;;14.26;53.64;100864.63;4936852;29;20043;-81
2022/03/15 10:21:25;;;;;;;21.20;14.57;;;;;;;14.24;54.08;100864.66;4936774;29;20076;-81
2022/03/15 10:23:55;;;;;;;19.33;14.45;;;;;;;14.34;54.47;100858.13;4936640;29;20020;-81
2022/03/15 10:26:25;;;;;;;20.50;14.73;;;;;;;14.43;53.79;100859.50;4935673;29;20063;-81
2022/03/15 10:28:53;;;;;;;18.77;13.90;;;;;;;14.48;53.19;100857.53;4936748;29;20034;-81
2022/03/15 10:31:22;;;;;;;18.70;13.52;;;;;;;14.40;53.32;100839.50;4935563;29;20453;-81
2022/03/15 10:33:53;;;;;;;18.70;13.77;;;;;;;14.43;52.98;100841.16;4936603;29;20028;-81
2022/03/15 10:36:19;;;;;;;;;;;;;;;14.44;53.02;100856.81;4935802;29;20035;-81
2022/03/15 10:38:47;;;;;;;16.25;12.73;;;;;;;14.46;52.55;100851.50;4935490;29;19915;-82
2022/03/15 10:41:15;;;;;;;16.77;13.48;;;;;;;14.43;51.38;100849.88;4936739;29;20050;-81
2022/03/15 10:43:41;;;;;;;17.63;12.93;;;;;;;14.43;51.86;100849.88;4936452;29;20388;-81
2022/03/15 10:46:09;;;;;;;17.63;11.82;;;;;;;14.35;51.73;100836.25;4935335;29;20498;-81
2022/03/15 10:48:36;;;;;;;18.52;12.82;;;;;;;14.39;51.31;100837.81;4935180;29;20087;-82
2022/03/15 10:51:14;;;;;;;16.27;12.20;;;;;;;14.40;51.65;100839.50;4935137;29;20557;-79
2022/03/15 10:53:47;;;;;;;18.02;12.43;;;;;;;14.38;51.80;100830.88;4936596;29;20041;-79
2022/03/15 10:56:19;;;;;;;14.45;11.95;;;;;;;14.53;51.75;100832.00;4934877;28;20070;-79
2022/03/15 10:58:45;;;;;;;17.15;12.30;;;;;;;14.64;51.04;100837.63;4934760;29;20091;-79
2022/03/15 11:01:11;;;;;;;17.85;11.45;;;;;;;14.73;50.66;100828.50;4934679;29;20387;-79
2022/03/15 11:03:36;;;;;;;16.65;12.00;;;;;;;14.78;50.35;100815.16;4936358;29;20035;-79
2022/03/15 11:06:08;;;;;;;16.13;12.20;;;;;;;14.91;49.93;100824.16;4936021;29;20541;-79
2022/03/15 11:08:34;;;;;;;14.35;10.35;;;;;;;14.95;49.51;100805.59;4934836;29;20042;-79
2022/03/15 11:11:03;;;;;;;15.40;11.15;;;;;;;14.78;48.95;100797.66;4935969;29;20078;-79